sensor_id;sensor_type;location;lat;lon;timestamp;temperature;humidity
2050;DHT22;8478;49.208;8.806;2023-01-01T00:01:28;13.30;99.90
2050;DHT22;8478;49.208;8.806;2023-01-01T00:03:56;13.30;99.90
2050;DHT22;8478;49.208;8.806;2023-01-01T00:06:22;13.30;99.90
2050;DHT22;8478;49.208;8.806;2023-01-01T00:08:48;13.30;99.90
2050;DHT22;8478;49.208;8.806;2023-01-01T00:11:34;13.40;99.90
2050;DHT22;8478;49.208;8.806;2023-01-01T00:14:00;13.30;99.90
2050;DHT22;8478;49.208;8.806;2023-01-01T00:16:25;13.30;99.90
2050;DHT22;8478;49.208;8.806;2023-01-01T00:18:51;13.40;99.90
2050;DHT22;8478;49.208;8.806;2023-01-01T00:21:16;13.30;99.90
2050;DHT22;8478;49.208;8.806;2023-01-01T00:23:42;13.30;99.90
2050;DHT22;8478;49.208;8.806;2023-01-01T00:26:13;13.40;99.90
2050;DHT22;8478;49.208;8.806;2023-01-01T00:28:39;13.30;99.90
2050;DHT22;8478;49.208;8.806;2023-01-01T00:31:13;13.20;99.90
2050;DHT22;8478;49.208;8.806;2023-01-01T00:33:41;13.30;99.90
2050;DHT22;8478;49.208;8.806;2023-01-01T00:36:12;13.20;99.90
2050;DHT22;8478;49.208;8.806;2023-01-01T00:38:39;13.30;99.90
2050;DHT22;8478;49.208;8.806;2023-01-01T00:41:05;13.30;99.90
2050;DHT22;8478;49.208;8.806;2023-01-01T00:43:31;13.30;99.90
2050;DHT22;8478;49.208;8.806;2023-01-01T00:45:56;13.20;99.90
2050;DHT22;8478;49.208;8.806;2023-01-01T00:48:23;13.30;99.90
2050;DHT22;8478;49.208;8.806;2023-01-01T00:50:49;13.30;99.90
2050;DHT22;8478;49.208;8.806;2023-01-01T00:53:16;13.30;99.90
2050;DHT22;8478;49.208;8.806;2023-01-01T00:55:43;13.20;99.90
2050;DHT22;8478;49.208;8.806;2023-01-01T00:58:09;13.30;99.90
2050;DHT22;8478;49.208;8.806;2023-01-01T01:00:36;13.20;99.90
2050;DHT22;8478;49.208;8.806;2023-01-01T01:03:02;13.30;99.90
2050;DHT22;8478;49.208;8.806;2023-01-01T01:05:28;13.30;99.90
2050;DHT22;8478;49.208;8.806;2023-01-01T01:07:54;13.30;99.90
2050;DHT22;8478;49.208;8.806;2023-01-01T01:10:19;13.30;99.90
2050;DHT22;8478;49.208;8.806;2023-01-01T01:12:53;13.30;99.90
2050;DHT22;8478;49.208;8.806;2023-01-01T01:15:19;13.30;99.90
2050;DHT22;8478;49.208;8.806;2023-01-01T01:17:45;13.30;99.90
2050;DHT22;8478;49.208;8.806;2023-01-01T01:20:11;13.30;99.90
2050;DHT22;8478;49.208;8.806;2023-01-01T01:22:37;13.30;99.90
2050;DHT22;8478;49.208;8.806;2023-01-01T01:25:04;13.30;99.90
2050;DHT22;8478;49.208;8.806;2023-01-01T01:27:30;13.20;99.90
2050;DHT22;8478;49.208;8.806;2023-01-01T01:29:56;13.30;99.90
2050;DHT22;8478;49.208;8.806;2023-01-01T01:32:22;13.20;99.90
2050;DHT22;8478;49.208;8.806;2023-01-01T01:34:47;13.30;99.90
2050;DHT22;8478;49.208;8.806;2023-01-01T01:37:13;13.20;99.90
2050;DHT22;8478;49.208;8.806;2023-01-01T01:39:39;13.20;99.90
2050;DHT22;8478;49.208;8.806;2023-01-01T01:42:05;13.20;99.90
2050;DHT22;8478;49.208;8.806;2023-01-01T01:44:50;13.20;99.90
2050;DHT22;8478;49.208;8.806;2023-01-01T01:47:30;13.20;99.90
2050;DHT22;8478;49.208;8.806;2023-01-01T01:55:21;13.20;99.90
2050;DHT22;8478;49.208;8.806;2023-01-01T01:57:47;13.20;99.90
2050;DHT22;8478;49.208;8.806;2023-01-01T02:00:13;13.20;99.90
2050;DHT22;8478;49.208;8.806;2023-01-01T02:03:09;13.20;99.90
2050;DHT22;8478;49.208;8.806;2023-01-01T02:05:38;13.10;99.90
2050;DHT22;8478;49.208;8.806;2023-01-01T02:08:05;13.20;99.90
2050;DHT22;8478;49.208;8.806;2023-01-01T02:10:31;13.20;99.90
2050;DHT22;8478;49.208;8.806;2023-01-01T02:12:57;13.10;99.90
2050;DHT22;8478;49.208;8.806;2023-01-01T02:15:28;13.20;99.90
2050;DHT22;8478;49.208;8.806;2023-01-01T02:18:04;13.20;99.90
2050;DHT22;8478;49.208;8.806;2023-01-01T02:20:52;13.20;99.90
2050;DHT22;8478;49.208;8.806;2023-01-01T02:26:37;13.20;99.90
2050;DHT22;8478;49.208;8.806;2023-01-01T02:31:57;13.20;99.90
2050;DHT22;8478;49.208;8.806;2023-01-01T02:34:27;13.20;99.90
2050;DHT22;8478;49.208;8.806;2023-01-01T02:36:54;13.20;99.90
2050;DHT22;8478;49.208;8.806;2023-01-01T02:39:25;13.20;99.90
2050;DHT22;8478;49.208;8.806;2023-01-01T02:41:55;13.20;99.90
2050;DHT22;8478;49.208;8.806;2023-01-01T02:44:24;13.20;99.90
2050;DHT22;8478;49.208;8.806;2023-01-01T02:46:50;13.20;99.90
2050;DHT22;8478;49.208;8.806;2023-01-01T02:49:16;13.20;99.90
2050;DHT22;8478;49.208;8.806;2023-01-01T02:52:02;13.20;99.90
2050;DHT22;8478;49.208;8.806;2023-01-01T03:00:02;13.20;99.90
2050;DHT22;8478;49.208;8.806;2023-01-01T03:05:59;13.10;99.90
2050;DHT22;8478;49.208;8.806;2023-01-01T03:12:26;13.10;99.90
2050;DHT22;8478;49.208;8.806;2023-01-01T03:18:02;13.10;99.90
2050;DHT22;8478;49.208;8.806;2023-01-01T03:20:28;13.10;99.90
2050;DHT22;8478;49.208;8.806;2023-01-01T03:22:59;13.10;99.90
2050;DHT22;8478;49.208;8.806;2023-01-01T03:25:36;13.10;99.90
2050;DHT22;8478;49.208;8.806;2023-01-01T03:28:09;13.10;99.90
2050;DHT22;8478;49.208;8.806;2023-01-01T03:30:38;13.10;99.90
2050;DHT22;8478;49.208;8.806;2023-01-01T03:33:10;13.10;99.90
2050;DHT22;8478;49.208;8.806;2023-01-01T03:38:33;13.10;99.90
2050;DHT22;8478;49.208;8.806;2023-01-01T03:41:04;13.10;99.90
2050;DHT22;8478;49.208;8.806;2023-01-01T03:43:55;13.00;99.90
2050;DHT22;8478;49.208;8.806;2023-01-01T03:46:28;13.00;99.90
2050;DHT22;8478;49.208;8.806;2023-01-01T03:48:55;13.00;99.90
2050;DHT22;8478;49.208;8.806;2023-01-01T03:54:35;13.00;99.90
2050;DHT22;8478;49.208;8.806;2023-01-01T04:00:08;13.00;99.90
2050;DHT22;8478;49.208;8.806;2023-01-01T04:03:05;13.00;99.90
2050;DHT22;8478;49.208;8.806;2023-01-01T04:05:36;13.10;99.90
2050;DHT22;8478;49.208;8.806;2023-01-01T04:08:04;13.00;99.90
2050;DHT22;8478;49.208;8.806;2023-01-01T04:10:32;13.00;99.90
2050;DHT22;8478;49.208;8.806;2023-01-01T04:13:02;13.00;99.90
2050;DHT22;8478;49.208;8.806;2023-01-01T04:15:29;13.00;99.90
2050;DHT22;8478;49.208;8.806;2023-01-01T04:17:55;13.00;99.90
2050;DHT22;8478;49.208;8.806;2023-01-01T04:20:21;13.00;99.90
2050;DHT22;8478;49.208;8.806;2023-01-01T04:22:47;13.10;99.90
2050;DHT22;8478;49.208;8.806;2023-01-01T04:25:13;13.00;99.90
2050;DHT22;8478;49.208;8.806;2023-01-01T04:27:39;13.00;99.90
2050;DHT22;8478;49.208;8.806;2023-01-01T04:30:08;13.00;99.90
2050;DHT22;8478;49.208;8.806;2023-01-01T04:32:34;13.00;99.90
2050;DHT22;8478;49.208;8.806;2023-01-01T04:34:59;13.00;99.90
2050;DHT22;8478;49.208;8.806;2023-01-01T04:37:25;13.00;99.90
2050;DHT22;8478;49.208;8.806;2023-01-01T04:39:51;13.00;99.90
2050;DHT22;8478;49.208;8.806;2023-01-01T04:42:17;13.00;99.90
2050;DHT22;8478;49.208;8.806;2023-01-01T04:44:42;13.00;99.90
2050;DHT22;8478;49.208;8.806;2023-01-01T04:47:08;13.00;99.90
2050;DHT22;8478;49.208;8.806;2023-01-01T04:49:34;13.00;99.90
2050;DHT22;8478;49.208;8.806;2023-01-01T04:51:59;13.00;99.90
2050;DHT22;8478;49.208;8.806;2023-01-01T04:54:25;13.00;99.90
2050;DHT22;8478;49.208;8.806;2023-01-01T04:56:50;13.00;99.90
2050;DHT22;8478;49.208;8.806;2023-01-01T04:59:16;13.00;99.90
2050;DHT22;8478;49.208;8.806;2023-01-01T05:01:42;12.90;99.90
2050;DHT22;8478;49.208;8.806;2023-01-01T05:04:11;13.00;99.90
2050;DHT22;8478;49.208;8.806;2023-01-01T05:06:37;13.00;99.90
2050;DHT22;8478;49.208;8.806;2023-01-01T05:09:03;13.00;99.90
2050;DHT22;8478;49.208;8.806;2023-01-01T05:11:29;13.00;99.90
2050;DHT22;8478;49.208;8.806;2023-01-01T05:13:57;13.00;99.90
2050;DHT22;8478;49.208;8.806;2023-01-01T05:16:26;13.00;99.90
2050;DHT22;8478;49.208;8.806;2023-01-01T05:18:52;13.00;99.90
2050;DHT22;8478;49.208;8.806;2023-01-01T05:21:24;12.90;99.90
2050;DHT22;8478;49.208;8.806;2023-01-01T05:23:55;13.00;99.90
2050;DHT22;8478;49.208;8.806;2023-01-01T05:26:22;12.90;99.90
2050;DHT22;8478;49.208;8.806;2023-01-01T05:28:49;13.00;99.90
2050;DHT22;8478;49.208;8.806;2023-01-01T05:31:18;12.90;99.90
2050;DHT22;8478;49.208;8.806;2023-01-01T05:33:44;12.90;99.90
2050;DHT22;8478;49.208;8.806;2023-01-01T05:36:24;13.00;99.90
2050;DHT22;8478;49.208;8.806;2023-01-01T05:38:50;12.90;99.90
2050;DHT22;8478;49.208;8.806;2023-01-01T05:41:17;12.90;99.90
2050;DHT22;8478;49.208;8.806;2023-01-01T05:43:43;12.90;99.90
2050;DHT22;8478;49.208;8.806;2023-01-01T05:46:17;12.90;99.90
2050;DHT22;8478;49.208;8.806;2023-01-01T05:48:43;12.90;99.90
2050;DHT22;8478;49.208;8.806;2023-01-01T05:51:17;12.90;99.90
2050;DHT22;8478;49.208;8.806;2023-01-01T05:53:44;12.90;99.90
2050;DHT22;8478;49.208;8.806;2023-01-01T05:56:11;12.90;99.90
2050;DHT22;8478;49.208;8.806;2023-01-01T05:58:37;12.90;99.90
2050;DHT22;8478;49.208;8.806;2023-01-01T06:01:09;12.90;99.90
2050;DHT22;8478;49.208;8.806;2023-01-01T06:03:35;12.90;99.90
2050;DHT22;8478;49.208;8.806;2023-01-01T06:06:10;12.90;99.90
2050;DHT22;8478;49.208;8.806;2023-01-01T06:08:36;12.90;99.90
2050;DHT22;8478;49.208;8.806;2023-01-01T06:11:03;12.90;99.90
2050;DHT22;8478;49.208;8.806;2023-01-01T06:13:29;12.90;99.90
2050;DHT22;8478;49.208;8.806;2023-01-01T06:15:56;12.90;99.90
2050;DHT22;8478;49.208;8.806;2023-01-01T06:18:23;12.90;99.90
2050;DHT22;8478;49.208;8.806;2023-01-01T06:20:49;12.90;99.90
2050;DHT22;8478;49.208;8.806;2023-01-01T06:23:15;12.90;99.90
2050;DHT22;8478;49.208;8.806;2023-01-01T06:25:41;12.90;99.90
2050;DHT22;8478;49.208;8.806;2023-01-01T06:28:06;12.80;99.90
2050;DHT22;8478;49.208;8.806;2023-01-01T06:30:32;12.90;99.90
2050;DHT22;8478;49.208;8.806;2023-01-01T06:33:00;12.80;99.90
2050;DHT22;8478;49.208;8.806;2023-01-01T06:35:26;12.90;99.90
2050;DHT22;8478;49.208;8.806;2023-01-01T06:37:52;12.80;99.90
2050;DHT22;8478;49.208;8.806;2023-01-01T06:40:17;12.80;99.90
2050;DHT22;8478;49.208;8.806;2023-01-01T06:42:43;12.80;99.90
2050;DHT22;8478;49.208;8.806;2023-01-01T06:45:09;12.80;99.90
2050;DHT22;8478;49.208;8.806;2023-01-01T06:47:35;12.80;99.90
2050;DHT22;8478;49.208;8.806;2023-01-01T06:50:04;12.80;99.90
2050;DHT22;8478;49.208;8.806;2023-01-01T06:52:30;12.90;99.90
2050;DHT22;8478;49.208;8.806;2023-01-01T06:54:56;12.80;99.90
2050;DHT22;8478;49.208;8.806;2023-01-01T06:57:22;12.80;99.90
2050;DHT22;8478;49.208;8.806;2023-01-01T06:59:48;12.80;99.90
2050;DHT22;8478;49.208;8.806;2023-01-01T07:02:14;12.80;99.90
2050;DHT22;8478;49.208;8.806;2023-01-01T07:04:40;12.80;99.90
2050;DHT22;8478;49.208;8.806;2023-01-01T07:07:06;12.80;99.90
2050;DHT22;8478;49.208;8.806;2023-01-01T07:09:31;12.80;99.90
2050;DHT22;8478;49.208;8.806;2023-01-01T07:11:57;12.80;99.90
2050;DHT22;8478;49.208;8.806;2023-01-01T07:14:23;12.80;99.90
2050;DHT22;8478;49.208;8.806;2023-01-01T07:16:48;12.80;99.90
2050;DHT22;8478;49.208;8.806;2023-01-01T07:19:14;12.80;99.90
2050;DHT22;8478;49.208;8.806;2023-01-01T07:21:45;12.80;99.90
2050;DHT22;8478;49.208;8.806;2023-01-01T07:24:15;12.80;99.90
2050;DHT22;8478;49.208;8.806;2023-01-01T07:26:42;12.80;99.90
2050;DHT22;8478;49.208;8.806;2023-01-01T07:29:08;12.80;99.90
2050;DHT22;8478;49.208;8.806;2023-01-01T07:31:35;12.80;99.90
2050;DHT22;8478;49.208;8.806;2023-01-01T07:34:01;12.80;99.90
2050;DHT22;8478;49.208;8.806;2023-01-01T07:36:27;12.70;99.90
2050;DHT22;8478;49.208;8.806;2023-01-01T07:38:52;12.70;99.90
2050;DHT22;8478;49.208;8.806;2023-01-01T07:41:18;12.80;99.90
2050;DHT22;8478;49.208;8.806;2023-01-01T07:43:44;12.80;99.90
2050;DHT22;8478;49.208;8.806;2023-01-01T07:46:11;12.80;99.90
2050;DHT22;8478;49.208;8.806;2023-01-01T07:48:37;12.70;99.90
2050;DHT22;8478;49.208;8.806;2023-01-01T07:51:02;12.70;99.90
2050;DHT22;8478;49.208;8.806;2023-01-01T07:53:28;12.80;99.90
2050;DHT22;8478;49.208;8.806;2023-01-01T07:55:54;12.70;99.90
2050;DHT22;8478;49.208;8.806;2023-01-01T07:58:19;12.80;99.90
2050;DHT22;8478;49.208;8.806;2023-01-01T08:00:47;12.70;99.90
2050;DHT22;8478;49.208;8.806;2023-01-01T08:03:14;12.70;99.90
2050;DHT22;8478;49.208;8.806;2023-01-01T08:05:39;12.80;99.90
2050;DHT22;8478;49.208;8.806;2023-01-01T08:08:05;12.70;99.90
2050;DHT22;8478;49.208;8.806;2023-01-01T08:10:31;12.70;99.90
2050;DHT22;8478;49.208;8.806;2023-01-01T08:13:04;12.70;99.90
2050;DHT22;8478;49.208;8.806;2023-01-01T08:15:31;12.70;99.90
2050;DHT22;8478;49.208;8.806;2023-01-01T08:17:58;12.70;99.90
2050;DHT22;8478;49.208;8.806;2023-01-01T08:20:24;12.70;99.90
2050;DHT22;8478;49.208;8.806;2023-01-01T08:22:51;12.70;99.90
2050;DHT22;8478;49.208;8.806;2023-01-01T08:25:16;12.70;99.90
2050;DHT22;8478;49.208;8.806;2023-01-01T08:27:42;12.70;99.90
2050;DHT22;8478;49.208;8.806;2023-01-01T08:30:10;12.70;99.90
2050;DHT22;8478;49.208;8.806;2023-01-01T08:32:36;12.70;99.90
2050;DHT22;8478;49.208;8.806;2023-01-01T08:35:02;12.70;99.90
2050;DHT22;8478;49.208;8.806;2023-01-01T08:37:28;12.70;99.90
2050;DHT22;8478;49.208;8.806;2023-01-01T08:39:54;12.70;99.90
2050;DHT22;8478;49.208;8.806;2023-01-01T08:42:19;12.70;99.90
2050;DHT22;8478;49.208;8.806;2023-01-01T08:44:45;12.60;99.90
2050;DHT22;8478;49.208;8.806;2023-01-01T08:47:24;12.70;99.90
2050;DHT22;8478;49.208;8.806;2023-01-01T08:49:50;12.70;99.90
2050;DHT22;8478;49.208;8.806;2023-01-01T08:52:17;12.70;99.90
2050;DHT22;8478;49.208;8.806;2023-01-01T08:54:43;12.70;99.90
2050;DHT22;8478;49.208;8.806;2023-01-01T08:57:09;12.70;99.90
2050;DHT22;8478;49.208;8.806;2023-01-01T08:59:35;12.70;99.90
2050;DHT22;8478;49.208;8.806;2023-01-01T09:02:00;12.70;99.90
2050;DHT22;8478;49.208;8.806;2023-01-01T09:04:26;12.70;99.90
2050;DHT22;8478;49.208;8.806;2023-01-01T09:06:52;12.70;99.90
2050;DHT22;8478;49.208;8.806;2023-01-01T09:09:18;12.70;99.90
2050;DHT22;8478;49.208;8.806;2023-01-01T09:11:50;12.60;99.90
2050;DHT22;8478;49.208;8.806;2023-01-01T09:14:17;12.70;99.90
2050;DHT22;8478;49.208;8.806;2023-01-01T09:16:43;12.60;99.90
2050;DHT22;8478;49.208;8.806;2023-01-01T09:19:08;12.70;99.90
2050;DHT22;8478;49.208;8.806;2023-01-01T09:21:34;12.70;99.90
2050;DHT22;8478;49.208;8.806;2023-01-01T09:24:00;12.60;99.90
2050;DHT22;8478;49.208;8.806;2023-01-01T09:26:25;12.70;99.90
2050;DHT22;8478;49.208;8.806;2023-01-01T09:28:51;12.70;99.90
2050;DHT22;8478;49.208;8.806;2023-01-01T09:31:17;12.70;99.90
2050;DHT22;8478;49.208;8.806;2023-01-01T09:33:43;12.70;99.90
2050;DHT22;8478;49.208;8.806;2023-01-01T09:38:48;12.60;99.90
2050;DHT22;8478;49.208;8.806;2023-01-01T09:46:42;12.60;99.90
2050;DHT22;8478;49.208;8.806;2023-01-01T09:49:31;12.70;99.90
2050;DHT22;8478;49.208;8.806;2023-01-01T09:51:59;12.60;99.90
2050;DHT22;8478;49.208;8.806;2023-01-01T09:54:37;12.70;99.90
2050;DHT22;8478;49.208;8.806;2023-01-01T09:57:06;12.60;99.90
2050;DHT22;8478;49.208;8.806;2023-01-01T09:59:33;12.60;99.90
2050;DHT22;8478;49.208;8.806;2023-01-01T10:08:16;12.70;99.90
2050;DHT22;8478;49.208;8.806;2023-01-01T10:10:59;12.70;99.90
2050;DHT22;8478;49.208;8.806;2023-01-01T10:13:46;12.60;99.90
2050;DHT22;8478;49.208;8.806;2023-01-01T10:16:36;12.70;99.90
2050;DHT22;8478;49.208;8.806;2023-01-01T10:19:31;12.60;99.90
2050;DHT22;8478;49.208;8.806;2023-01-01T10:22:10;12.70;99.90
2050;DHT22;8478;49.208;8.806;2023-01-01T10:24:44;12.70;99.90
2050;DHT22;8478;49.208;8.806;2023-01-01T10:27:37;12.70;99.90
2050;DHT22;8478;49.208;8.806;2023-01-01T10:30:15;12.70;99.90
2050;DHT22;8478;49.208;8.806;2023-01-01T10:32:41;12.70;99.90
2050;DHT22;8478;49.208;8.806;2023-01-01T10:35:17;12.70;99.90
2050;DHT22;8478;49.208;8.806;2023-01-01T10:37:44;12.70;99.90
2050;DHT22;8478;49.208;8.806;2023-01-01T10:40:17;12.70;99.90
2050;DHT22;8478;49.208;8.806;2023-01-01T10:42:48;12.70;99.90
2050;DHT22;8478;49.208;8.806;2023-01-01T10:45:16;12.70;99.90
2050;DHT22;8478;49.208;8.806;2023-01-01T10:50:50;12.70;99.90
2050;DHT22;8478;49.208;8.806;2023-01-01T10:53:50;12.70;99.90
2050;DHT22;8478;49.208;8.806;2023-01-01T10:56:21;12.70;99.90
2050;DHT22;8478;49.208;8.806;2023-01-01T10:58:51;12.70;99.90
2050;DHT22;8478;49.208;8.806;2023-01-01T11:01:27;12.70;99.90
2050;DHT22;8478;49.208;8.806;2023-01-01T11:06:38;12.70;99.90
2050;DHT22;8478;49.208;8.806;2023-01-01T11:09:23;12.70;99.90
2050;DHT22;8478;49.208;8.806;2023-01-01T11:12:01;12.70;99.90
2050;DHT22;8478;49.208;8.806;2023-01-01T11:14:40;12.70;99.90
2050;DHT22;8478;49.208;8.806;2023-01-01T11:17:08;12.70;99.90
2050;DHT22;8478;49.208;8.806;2023-01-01T11:19:36;12.70;99.90
2050;DHT22;8478;49.208;8.806;2023-01-01T11:22:04;12.70;99.90
2050;DHT22;8478;49.208;8.806;2023-01-01T11:24:34;12.70;99.90
2050;DHT22;8478;49.208;8.806;2023-01-01T11:29:44;12.70;99.90
2050;DHT22;8478;49.208;8.806;2023-01-01T11:32:17;12.70;99.90
2050;DHT22;8478;49.208;8.806;2023-01-01T11:34:45;12.70;99.90
2050;DHT22;8478;49.208;8.806;2023-01-01T11:37:25;12.70;99.90
2050;DHT22;8478;49.208;8.806;2023-01-01T11:39:54;12.70;99.90
2050;DHT22;8478;49.208;8.806;2023-01-01T11:42:23;12.70;99.90
2050;DHT22;8478;49.208;8.806;2023-01-01T11:44:54;12.70;99.90
2050;DHT22;8478;49.208;8.806;2023-01-01T11:47:32;12.70;99.90
2050;DHT22;8478;49.208;8.806;2023-01-01T11:50:21;12.70;99.90
2050;DHT22;8478;49.208;8.806;2023-01-01T11:52:52;12.70;99.90
2050;DHT22;8478;49.208;8.806;2023-01-01T11:55:36;12.70;99.90
2050;DHT22;8478;49.208;8.806;2023-01-01T11:58:16;12.80;99.90
2050;DHT22;8478;49.208;8.806;2023-01-01T12:00:46;12.80;99.90
2050;DHT22;8478;49.208;8.806;2023-01-01T12:03:28;12.80;99.90
2050;DHT22;8478;49.208;8.806;2023-01-01T12:08:43;12.70;99.90
2050;DHT22;8478;49.208;8.806;2023-01-01T12:14:02;12.70;99.90
2050;DHT22;8478;49.208;8.806;2023-01-01T12:19:59;12.80;99.90
2050;DHT22;8478;49.208;8.806;2023-01-01T12:22:29;12.80;99.90
2050;DHT22;8478;49.208;8.806;2023-01-01T12:24:55;12.80;99.90
2050;DHT22;8478;49.208;8.806;2023-01-01T12:35:43;12.80;99.90
2050;DHT22;8478;49.208;8.806;2023-01-01T12:41:40;12.80;99.90
2050;DHT22;8478;49.208;8.806;2023-01-01T12:44:16;12.80;99.90
2050;DHT22;8478;49.208;8.806;2023-01-01T12:50:04;12.80;99.90
2050;DHT22;8478;49.208;8.806;2023-01-01T12:52:53;12.80;99.90
2050;DHT22;8478;49.208;8.806;2023-01-01T12:58:20;12.80;99.90
2050;DHT22;8478;49.208;8.806;2023-01-01T13:01:00;12.80;99.90
2050;DHT22;8478;49.208;8.806;2023-01-01T13:06:25;12.80;99.90
2050;DHT22;8478;49.208;8.806;2023-01-01T13:08:58;12.80;99.90
2050;DHT22;8478;49.208;8.806;2023-01-01T13:11:27;12.80;99.90
2050;DHT22;8478;49.208;8.806;2023-01-01T13:13:53;12.90;99.90
2050;DHT22;8478;49.208;8.806;2023-01-01T13:16:38;12.80;99.90
2050;DHT22;8478;49.208;8.806;2023-01-01T13:19:05;12.90;99.90
2050;DHT22;8478;49.208;8.806;2023-01-01T13:21:46;12.80;99.90
2050;DHT22;8478;49.208;8.806;2023-01-01T13:24:23;12.90;99.90
2050;DHT22;8478;49.208;8.806;2023-01-01T13:26:51;12.80;99.90
2050;DHT22;8478;49.208;8.806;2023-01-01T13:37:24;12.90;99.90
2050;DHT22;8478;49.208;8.806;2023-01-01T13:40:01;12.90;99.90
2050;DHT22;8478;49.208;8.806;2023-01-01T13:45:23;12.90;99.90
2050;DHT22;8478;49.208;8.806;2023-01-01T13:56:36;12.90;99.90
2050;DHT22;8478;49.208;8.806;2023-01-01T14:05:02;12.90;99.90
2050;DHT22;8478;49.208;8.806;2023-01-01T14:07:46;12.90;99.90
2050;DHT22;8478;49.208;8.806;2023-01-01T14:10:23;12.90;99.90
2050;DHT22;8478;49.208;8.806;2023-01-01T14:12:51;12.90;99.90
2050;DHT22;8478;49.208;8.806;2023-01-01T14:15:29;12.90;99.90
2050;DHT22;8478;49.208;8.806;2023-01-01T14:17:58;12.90;99.90
2050;DHT22;8478;49.208;8.806;2023-01-01T14:20:34;12.90;99.90
2050;DHT22;8478;49.208;8.806;2023-01-01T14:23:05;12.90;99.90
2050;DHT22;8478;49.208;8.806;2023-01-01T14:25:33;12.90;99.90
2050;DHT22;8478;49.208;8.806;2023-01-01T14:27:59;12.90;99.90
2050;DHT22;8478;49.208;8.806;2023-01-01T14:30:25;12.90;99.90
2050;DHT22;8478;49.208;8.806;2023-01-01T14:32:57;12.90;99.90
2050;DHT22;8478;49.208;8.806;2023-01-01T14:35:23;12.90;99.90
2050;DHT22;8478;49.208;8.806;2023-01-01T14:37:49;12.90;99.90
2050;DHT22;8478;49.208;8.806;2023-01-01T14:40:25;12.90;99.90
2050;DHT22;8478;49.208;8.806;2023-01-01T14:43:11;12.90;99.90
2050;DHT22;8478;49.208;8.806;2023-01-01T14:45:41;12.90;99.90
2050;DHT22;8478;49.208;8.806;2023-01-01T14:48:16;13.00;99.90
2050;DHT22;8478;49.208;8.806;2023-01-01T14:50:46;13.00;99.90
2050;DHT22;8478;49.208;8.806;2023-01-01T14:53:15;12.90;99.90
2050;DHT22;8478;49.208;8.806;2023-01-01T14:55:46;12.90;99.90
2050;DHT22;8478;49.208;8.806;2023-01-01T14:58:17;12.90;99.90
2050;DHT22;8478;49.208;8.806;2023-01-01T15:00:44;12.90;99.90
2050;DHT22;8478;49.208;8.806;2023-01-01T15:03:15;13.00;99.90
2050;DHT22;8478;49.208;8.806;2023-01-01T15:05:42;13.00;99.90
2050;DHT22;8478;49.208;8.806;2023-01-01T15:08:22;13.00;99.90
2050;DHT22;8478;49.208;8.806;2023-01-01T15:10:49;12.90;99.90
2050;DHT22;8478;49.208;8.806;2023-01-01T15:13:26;13.00;99.90
2050;DHT22;8478;49.208;8.806;2023-01-01T15:15:53;13.00;99.90
2050;DHT22;8478;49.208;8.806;2023-01-01T15:18:45;13.00;99.90
2050;DHT22;8478;49.208;8.806;2023-01-01T15:26:41;13.00;99.90
2050;DHT22;8478;49.208;8.806;2023-01-01T15:29:10;13.00;99.90
2050;DHT22;8478;49.208;8.806;2023-01-01T15:31:45;13.00;99.90
2050;DHT22;8478;49.208;8.806;2023-01-01T15:34:20;13.00;99.90
2050;DHT22;8478;49.208;8.806;2023-01-01T15:36:47;13.00;99.90
2050;DHT22;8478;49.208;8.806;2023-01-01T15:39:14;13.00;99.90
2050;DHT22;8478;49.208;8.806;2023-01-01T15:41:48;13.00;99.90
2050;DHT22;8478;49.208;8.806;2023-01-01T15:44:18;13.00;99.90
2050;DHT22;8478;49.208;8.806;2023-01-01T15:46:46;13.00;99.90
2050;DHT22;8478;49.208;8.806;2023-01-01T15:49:26;12.90;99.90
2050;DHT22;8478;49.208;8.806;2023-01-01T15:51:55;13.00;99.90
2050;DHT22;8478;49.208;8.806;2023-01-01T15:54:23;13.00;99.90
2050;DHT22;8478;49.208;8.806;2023-01-01T15:56:49;13.00;99.90
2050;DHT22;8478;49.208;8.806;2023-01-01T15:59:27;13.00;99.90
2050;DHT22;8478;49.208;8.806;2023-01-01T16:02:12;13.00;99.90
2050;DHT22;8478;49.208;8.806;2023-01-01T16:04:39;13.00;99.90
2050;DHT22;8478;49.208;8.806;2023-01-01T16:07:18;13.00;99.90
2050;DHT22;8478;49.208;8.806;2023-01-01T16:09:46;13.00;99.90
2050;DHT22;8478;49.208;8.806;2023-01-01T16:12:11;13.00;99.90
2050;DHT22;8478;49.208;8.806;2023-01-01T16:14:37;13.00;99.90
2050;DHT22;8478;49.208;8.806;2023-01-01T16:17:03;13.00;99.90
2050;DHT22;8478;49.208;8.806;2023-01-01T16:19:29;13.00;99.90
2050;DHT22;8478;49.208;8.806;2023-01-01T16:21:56;13.00;99.90
2050;DHT22;8478;49.208;8.806;2023-01-01T16:24:22;13.00;99.90
2050;DHT22;8478;49.208;8.806;2023-01-01T16:26:49;13.00;99.90
2050;DHT22;8478;49.208;8.806;2023-01-01T16:29:15;13.00;99.90
2050;DHT22;8478;49.208;8.806;2023-01-01T16:31:41;13.00;99.90
2050;DHT22;8478;49.208;8.806;2023-01-01T16:34:11;13.00;99.90
2050;DHT22;8478;49.208;8.806;2023-01-01T16:36:37;13.00;99.90
2050;DHT22;8478;49.208;8.806;2023-01-01T16:39:03;13.00;99.90
2050;DHT22;8478;49.208;8.806;2023-01-01T16:41:29;13.00;99.90
2050;DHT22;8478;49.208;8.806;2023-01-01T16:43:55;13.00;99.90
2050;DHT22;8478;49.208;8.806;2023-01-01T16:46:22;13.00;99.90
2050;DHT22;8478;49.208;8.806;2023-01-01T16:48:47;13.00;99.90
2050;DHT22;8478;49.208;8.806;2023-01-01T16:51:17;13.00;99.90
2050;DHT22;8478;49.208;8.806;2023-01-01T16:53:44;13.00;99.90
2050;DHT22;8478;49.208;8.806;2023-01-01T16:56:10;13.00;99.90
2050;DHT22;8478;49.208;8.806;2023-01-01T16:58:36;13.00;99.90
2050;DHT22;8478;49.208;8.806;2023-01-01T17:01:02;13.00;99.90
2050;DHT22;8478;49.208;8.806;2023-01-01T17:03:28;13.00;99.90
2050;DHT22;8478;49.208;8.806;2023-01-01T17:05:54;13.00;99.90
2050;DHT22;8478;49.208;8.806;2023-01-01T17:08:19;13.00;99.90
2050;DHT22;8478;49.208;8.806;2023-01-01T17:10:45;13.00;99.90
2050;DHT22;8478;49.208;8.806;2023-01-01T17:13:11;13.00;99.90
2050;DHT22;8478;49.208;8.806;2023-01-01T17:15:36;13.00;99.90
2050;DHT22;8478;49.208;8.806;2023-01-01T17:18:02;13.00;99.90
2050;DHT22;8478;49.208;8.806;2023-01-01T17:20:28;13.00;99.90
2050;DHT22;8478;49.208;8.806;2023-01-01T17:22:54;13.00;99.90
2050;DHT22;8478;49.208;8.806;2023-01-01T17:25:20;13.00;99.90
2050;DHT22;8478;49.208;8.806;2023-01-01T17:27:46;13.00;99.90
2050;DHT22;8478;49.208;8.806;2023-01-01T17:30:13;12.90;99.90
2050;DHT22;8478;49.208;8.806;2023-01-01T17:32:38;13.00;99.90
2050;DHT22;8478;49.208;8.806;2023-01-01T17:35:05;13.00;99.90
2050;DHT22;8478;49.208;8.806;2023-01-01T17:37:31;13.00;99.90
2050;DHT22;8478;49.208;8.806;2023-01-01T17:39:58;13.00;99.90
2050;DHT22;8478;49.208;8.806;2023-01-01T17:42:24;13.00;99.90
2050;DHT22;8478;49.208;8.806;2023-01-01T17:44:50;13.00;99.90
2050;DHT22;8478;49.208;8.806;2023-01-01T17:47:16;13.00;99.90
2050;DHT22;8478;49.208;8.806;2023-01-01T17:49:42;13.00;99.90
2050;DHT22;8478;49.208;8.806;2023-01-01T17:52:08;13.00;99.90
2050;DHT22;8478;49.208;8.806;2023-01-01T17:54:34;13.00;99.90
2050;DHT22;8478;49.208;8.806;2023-01-01T17:56:59;13.00;99.90
2050;DHT22;8478;49.208;8.806;2023-01-01T17:59:29;13.00;99.90
2050;DHT22;8478;49.208;8.806;2023-01-01T18:01:55;13.00;99.90
2050;DHT22;8478;49.208;8.806;2023-01-01T18:04:21;12.90;99.90
2050;DHT22;8478;49.208;8.806;2023-01-01T18:06:47;13.00;99.90
2050;DHT22;8478;49.208;8.806;2023-01-01T18:09:13;12.90;99.90
2050;DHT22;8478;49.208;8.806;2023-01-01T18:11:39;13.00;99.90
2050;DHT22;8478;49.208;8.806;2023-01-01T18:14:05;13.00;99.90
2050;DHT22;8478;49.208;8.806;2023-01-01T18:16:33;13.00;99.90